Time;durP1;ratioP1;P1;durP2;ratioP2;P2;SDS_P1;SDS_P2;PMS_P1;PMS_P2;Temp;Humidity;BMP_temperature;BMP_pressure;BME280_temperature;BME280_humidity;BME280_pressure;Samples;Min_cycle;Max_cycle;Signal;HPM_P1;HPM_P2
2023/08/04 00:00:29;;;;;;;;;5.67;5.00;;;;;-143.47;100.00;63865.75;2096339;28;46351;-53
2023/08/04 00:01:30;;;;;;;;;5.50;4.50;;;;;-143.47;100.00;63865.75;2093769;28;46381;-52
2023/08/04 00:02:31;;;;;;;;;7.00;7.00;;;;;-143.47;100.00;63865.75;2095453;28;46717;-50
2023/08/04 00:03:31;;;;;;;;;7.33;6.67;;;;;-143.47;100.00;63865.75;2100700;28;45687;-52
2023/08/04 00:04:31;;;;;;;;;6.67;6.67;;;;;-143.47;100.00;63865.75;2096365;28;46899;-52
2023/08/04 00:05:32;;;;;;;;;5.67;5.67;;;;;-143.47;100.00;63865.75;2096171;28;46646;-54
2023/08/04 00:06:32;;;;;;;;;7.00;6.67;;;;;-143.47;100.00;63865.75;2100097;28;46423;-52
2023/08/04 00:07:33;;;;;;;;;7.00;7.00;;;;;-143.47;100.00;63865.75;2096547;28;46317;-48
2023/08/04 00:08:33;;;;;;;;;6.50;5.75;;;;;-143.47;100.00;63865.75;2099074;28;46845;-51
2023/08/04 00:09:34;;;;;;;;;6.33;6.33;;;;;-143.47;100.00;63865.75;2096288;28;46375;-52
2023/08/04 00:10:34;;;;;;;;;6.67;6.67;;;;;-143.47;100.00;63865.75;2096202;28;46297;-53
2023/08/04 00:11:34;;;;;;;;;7.33;7.33;;;;;-143.47;100.00;63865.75;2097878;28;46540;-51
2023/08/04 00:12:35;;;;;;;;;6.00;6.00;;;;;-143.47;100.00;63865.75;2097588;28;46721;-52
2023/08/04 00:13:35;;;;;;;;;8.33;7.00;;;;;-143.47;100.00;63865.75;2097655;28;46852;-50
2023/08/04 00:14:36;;;;;;;;;4.67;4.67;;;;;-143.47;100.00;63865.75;2098117;28;46287;-52
2023/08/04 00:15:36;;;;;;;;;5.00;5.00;;;;;-143.47;100.00;63865.75;2096798;28;46318;-54
2023/08/04 00:16:36;;;;;;;;;5.67;5.67;;;;;-143.47;100.00;63865.75;2099062;28;45977;-51
2023/08/04 00:17:38;;;;;;;;;8.33;6.00;;;;;-143.47;100.00;63865.75;2098690;28;46714;-54
2023/08/04 00:18:39;;;;;;;;;6.50;6.50;;;;;-143.47;100.00;63865.75;2088191;28;45774;-53
2023/08/04 00:19:40;;;;;;;;;6.33;5.67;;;;;-143.47;100.00;63865.75;2099254;28;46832;-52
2023/08/04 00:20:40;;;;;;;;;6.50;6.50;;;;;-143.47;100.00;63865.75;2099187;28;47121;-54
2023/08/04 00:21:41;;;;;;;;;6.33;6.33;;;;;-143.47;100.00;63865.75;2094667;28;46339;-52
2023/08/04 00:22:41;;;;;;;;;5.67;5.67;;;;;-143.47;100.00;63865.75;2090784;28;46636;-53
2023/08/04 00:23:41;;;;;;;;;5.67;5.67;;;;;-143.47;100.00;63865.75;2090755;28;46347;-52
2023/08/04 00:24:42;;;;;;;;;6.00;5.00;;;;;-143.47;100.00;63865.75;2105175;27;46458;-53
2023/08/04 00:25:42;;;;;;;;;7.33;7.33;;;;;-143.47;100.00;63865.75;2112998;27;46248;-53
2023/08/04 00:26:42;;;;;;;;;7.00;7.00;;;;;-143.47;100.00;63865.75;2097799;27;46303;-54
2023/08/04 00:27:43;;;;;;;;;5.00;5.00;;;;;-143.47;100.00;63865.75;2096637;28;46840;-54
2023/08/04 00:28:43;;;;;;;;;6.33;6.00;;;;;-143.47;100.00;63865.75;2102924;28;46176;-55
2023/08/04 00:29:43;;;;;;;;;6.67;6.67;;;;;-143.47;100.00;63865.75;2100387;27;46982;-52
2023/08/04 00:30:44;;;;;;;;;5.67;5.33;;;;;-143.47;100.00;63865.75;2099812;28;46616;-50
2023/08/04 00:31:44;;;;;;;;;6.00;4.00;;;;;-143.47;100.00;63865.75;2095851;28;46336;-51
2023/08/04 00:32:44;;;;;;;;;6.00;6.00;;;;;-143.47;100.00;63865.75;2094951;28;46844;-50
2023/08/04 00:33:45;;;;;;;;;7.00;5.67;;;;;-143.47;100.00;63865.75;2087861;28;46276;-51
2023/08/04 00:34:45;;;;;;;;;5.33;5.33;;;;;-143.47;100.00;63865.75;2092277;28;46391;-55
2023/08/04 00:35:45;;;;;;;;;5.67;5.67;;;;;-143.47;100.00;63865.75;2094760;28;46282;-52
2023/08/04 00:36:47;;;;;;;;;6.67;5.67;;;;;-143.47;100.00;63865.75;2094920;28;46285;-54
2023/08/04 00:37:48;;;;;;;;;8.25;7.75;;;;;-143.47;100.00;63865.75;2096707;28;46606;-53
2023/08/04 00:38:48;;;;;;;;;6.33;6.33;;;;;-143.47;100.00;63865.75;2097671;28;46984;-53
2023/08/04 00:39:49;;;;;;;;;7.00;6.00;;;;;-143.47;100.00;63865.75;2099286;27;46813;-49
2023/08/04 00:40:52;;;;;;;;;5.00;5.00;;;;;-143.47;100.00;63865.75;2096537;28;46266;-49
2023/08/04 00:41:52;;;;;;;;;5.25;5.25;;;;;-143.47;100.00;63865.75;2097406;28;48207;-53
2023/08/04 00:42:53;;;;;;;;;8.00;7.00;;;;;-143.47;100.00;63865.75;2097479;28;46575;-53
2023/08/04 00:43:53;;;;;;;;;5.00;5.00;;;;;-143.47;100.00;63865.75;2102786;27;46825;-52
2023/08/04 00:44:53;;;;;;;;;5.33;5.00;;;;;-143.47;100.00;63865.75;2103602;28;46651;-53
2023/08/04 00:45:54;;;;;;;;;6.67;6.67;;;;;-143.47;100.00;63865.75;2099192;27;46332;-52
2023/08/04 00:46:54;;;;;;;;;8.00;8.00;;;;;-143.47;100.00;63865.75;2098216;28;45752;-54
2023/08/04 00:47:54;;;;;;;;;8.00;6.33;;;;;-143.47;100.00;63865.75;2101269;28;46691;-50
2023/08/04 00:48:56;;;;;;;;;3.00;3.00;;;;;-143.47;100.00;63865.75;2102545;27;46184;-54
2023/08/04 00:49:57;;;;;;;;;5.00;5.00;;;;;-143.47;100.00;63865.75;2097459;28;46966;-49
2023/08/04 00:50:58;;;;;;;;;5.00;5.00;;;;;-143.47;100.00;63865.75;2099741;28;46202;-50
2023/08/04 00:51:58;;;;;;;;;6.00;5.00;;;;;-143.47;100.00;63865.75;2102428;27;46761;-48
2023/08/04 00:53:00;;;;;;;;;6.00;6.00;;;;;-143.47;100.00;63865.75;2098153;28;46401;-53
2023/08/04 00:54:01;;;;;;;;;6.00;6.00;;;;;-143.47;100.00;63865.75;2097508;28;46963;-52
2023/08/04 00:55:01;;;;;;;;;5.00;4.00;;;;;-143.47;100.00;63865.75;2097852;28;45710;-52
2023/08/04 00:56:02;;;;;;;;;7.00;7.00;;;;;-143.47;100.00;63865.75;2099965;28;46828;-48
2023/08/04 00:57:03;;;;;;;;;7.67;7.67;;;;;-143.47;100.00;63865.75;2095394;28;46364;-51
2023/08/04 00:58:03;;;;;;;;;5.50;5.50;;;;;-143.47;100.00;63865.75;2097534;28;46611;-50
2023/08/04 00:59:03;;;;;;;;;4.00;4.00;;;;;-143.47;100.00;63865.75;2098069;28;45855;-51
2023/08/04 01:00:06;;;;;;;;;6.33;6.33;;;;;-143.47;100.00;63865.75;2105290;28;46607;-50
2023/08/04 01:01:06;;;;;;;;;6.50;6.00;;;;;-143.47;100.00;63865.75;2102131;27;47009;-53
2023/08/04 01:02:06;;;;;;;;;6.67;6.67;;;;;-143.47;100.00;63865.75;2098390;27;46705;-48
2023/08/04 01:03:07;;;;;;;;;6.00;5.33;;;;;-143.47;100.00;63865.75;2102700;28;46643;-51
2023/08/04 01:04:07;;;;;;;;;8.00;8.00;;;;;-143.47;100.00;63865.75;2096658;28;45412;-50
2023/08/04 01:05:07;;;;;;;;;6.00;6.00;;;;;-143.47;100.00;63865.75;2096124;28;46305;-51
2023/08/04 01:06:14;;;;;;;;;7.00;7.00;;;;;-143.47;100.00;63865.75;2105229;27;46606;-49
2023/08/04 01:07:27;;;;;;;;;7.00;5.00;;;;;-143.47;100.00;63865.75;2111063;27;46445;-48
2023/08/04 01:08:34;;;;;;;;;8.75;7.75;;;;;-143.47;100.00;63865.75;2108720;27;46601;-52
2023/08/04 01:10:11;;;;;;;;;7.25;6.75;;;;;-143.47;100.00;63865.75;2097614;28;46871;-50
2023/08/04 01:11:16;;;;;;;;;6.50;6.50;;;;;-143.47;100.00;63865.75;2079418;28;46930;-50
2023/08/04 01:12:46;;;;;;;;;7.75;7.50;;;;;-143.47;100.00;63865.75;2080066;28;46589;-52
2023/08/04 01:13:47;;;;;;;;;6.25;6.25;;;;;-143.47;100.00;63865.75;2079663;28;46467;-54
2023/08/04 01:14:51;;;;;;;;;7.00;6.50;;;;;-143.47;100.00;63865.75;2079710;28;46753;-53
2023/08/04 01:15:52;;;;;;;;;8.75;7.75;;;;;-143.47;100.00;63865.75;2079933;28;46374;-50
2023/08/04 01:16:53;;;;;;;;;7.33;5.67;;;;;-143.47;100.00;63865.75;2079590;28;46402;-53
2023/08/04 01:17:55;;;;;;;;;5.33;5.00;;;;;-143.47;100.00;63865.75;2079809;28;46508;-49
2023/08/04 01:18:59;;;;;;;;;5.75;5.75;;;;;-143.47;100.00;63865.75;2079884;28;46710;-50
2023/08/04 01:19:59;;;;;;;;;6.25;6.25;;;;;-143.47;100.00;63865.75;2081288;28;46540;-53
2023/08/04 01:21:04;;;;;;;;;6.00;6.00;;;;;-143.47;100.00;63865.75;2079538;28;46444;-53
2023/08/04 01:22:04;;;;;;;;;7.25;7.25;;;;;-143.47;100.00;63865.75;2077096;28;47022;-53
2023/08/04 01:23:04;;;;;;;;;9.33;7.00;;;;;-143.47;100.00;63865.75;2071306;28;46244;-51
2023/08/04 01:24:05;;;;;;;;;7.00;7.00;;;;;-143.47;100.00;63865.75;2064130;28;46082;-49
2023/08/04 01:25:05;;;;;;;;;7.33;7.00;;;;;-143.47;100.00;63865.75;2075945;28;46826;-53
2023/08/04 01:26:10;;;;;;;;;8.00;8.00;;;;;-143.47;100.00;63865.75;2067202;28;46142;-53
2023/08/04 01:27:13;;;;;;;;;8.50;8.00;;;;;-143.47;100.00;63865.75;2068589;28;46402;-52
2023/08/04 01:28:16;;;;;;;;;6.75;6.75;;;;;-143.47;100.00;63865.75;2068585;28;46639;-52
2023/08/04 01:29:18;;;;;;;;;7.25;7.25;;;;;-143.47;100.00;63865.75;2070500;28;46387;-49
2023/08/04 01:30:21;;;;;;;;;8.00;8.00;;;;;-143.47;100.00;63865.75;2077955;28;45295;-52
2023/08/04 01:31:24;;;;;;;;;6.25;6.25;;;;;-143.47;100.00;63865.75;2075850;28;46834;-50
2023/08/04 01:32:24;;;;;;;;;6.25;6.00;;;;;-143.47;100.00;63865.75;2079843;28;46820;-50
2023/08/04 01:33:25;;;;;;;;;9.00;7.33;;;;;-143.47;100.00;63865.75;2079928;28;46616;-53
2023/08/04 01:34:25;;;;;;;;;9.00;8.67;;;;;-143.47;100.00;63865.75;2079683;28;46467;-50
2023/08/04 01:35:26;;;;;;;;;7.33;5.33;;;;;-143.47;100.00;63865.75;2079610;28;46863;-49
2023/08/04 01:36:26;;;;;;;;;7.67;7.67;;;;;-143.47;100.00;63865.75;2079105;28;46397;-51
2023/08/04 01:37:27;;;;;;;;;7.67;6.00;;;;;-143.47;100.00;63865.75;2070955;28;46700;-53
2023/08/04 01:38:27;;;;;;;;;7.00;6.33;;;;;-143.47;100.00;63865.75;2080562;28;46570;-52
2023/08/04 01:39:27;;;;;;;;;6.67;6.00;;;;;-143.47;100.00;63865.75;2079753;28;46647;-49
2023/08/04 01:40:28;;;;;;;;;9.67;8.00;;;;;-143.47;100.00;63865.75;2079731;28;46685;-50
2023/08/04 01:41:28;;;;;;;;;7.33;6.67;;;;;-143.47;100.00;63865.75;2079751;28;46454;-50
2023/08/04 01:42:28;;;;;;;;;7.00;7.00;;;;;-143.47;100.00;63865.75;2079784;28;46581;-48
2023/08/04 01:43:29;;;;;;;;;5.67;5.67;;;;;-143.47;100.00;63865.75;2085214;28;46283;-51
2023/08/04 01:44:29;;;;;;;;;6.67;5.67;;;;;-143.47;100.00;63865.75;2081115;28;46426;-52
2023/08/04 01:45:29;;;;;;;;;7.33;7.33;;;;;-143.47;100.00;63865.75;2079742;28;46131;-49
2023/08/04 01:46:30;;;;;;;;;6.33;6.33;;;;;-143.47;100.00;63865.75;2078696;28;46412;-50
2023/08/04 01:47:30;;;;;;;;;6.67;6.00;;;;;-143.47;100.00;63865.75;2078961;28;46339;-51
2023/08/04 01:48:30;;;;;;;;;5.67;5.67;;;;;-143.47;100.00;63865.75;2088859;28;46287;-53
2023/08/04 01:49:31;;;;;;;;;7.00;6.33;;;;;-143.47;100.00;63865.75;2102793;28;46289;-52
2023/08/04 01:50:31;;;;;;;;;5.75;5.75;;;;;-143.47;100.00;63865.75;2103136;27;45047;-53
2023/08/04 01:51:32;;;;;;;;;7.00;7.00;;;;;-143.47;100.00;63865.75;2105644;27;46629;-49
2023/08/04 01:52:32;;;;;;;;;7.33;7.33;;;;;-143.47;100.00;63865.75;2104617;27;46082;-49
2023/08/04 01:53:33;;;;;;;;;7.00;7.00;;;;;-143.47;100.00;63865.75;2103681;28;46364;-51
2023/08/04 01:54:33;;;;;;;;;7.00;6.00;;;;;-143.47;100.00;63865.75;2100737;28;46882;-50
2023/08/04 01:55:33;;;;;;;;;8.00;7.00;;;;;-143.47;100.00;63865.75;2095768;28;46228;-53
2023/08/04 01:56:33;;;;;;;;;8.33;7.00;;;;;-143.47;100.00;63865.75;2100876;27;46596;-51
2023/08/04 01:57:34;;;;;;;;;6.00;6.00;;;;;-143.47;100.00;63865.75;2102693;28;46695;-49
2023/08/04 01:58:34;;;;;;;;;7.00;7.00;;;;;-143.47;100.00;63865.75;2102989;27;46365;-50
2023/08/04 01:59:34;;;;;;;;;6.33;6.00;;;;;-143.47;100.00;63865.75;2105847;27;46556;-48
2023/08/04 02:00:35;;;;;;;;;3.67;3.67;;;;;-143.47;100.00;63865.75;2102641;27;46236;-50
2023/08/04 02:01:35;;;;;;;;;5.67;5.67;;;;;-143.47;100.00;63865.75;2103638;28;46458;-49
2023/08/04 02:02:35;;;;;;;;;6.67;6.00;;;;;-143.47;100.00;63865.75;2096287;28;46250;-52
2023/08/04 02:03:36;;;;;;;;;8.00;6.33;;;;;-143.47;100.00;63865.75;2099062;28;46485;-50
2023/08/04 02:04:36;;;;;;;;;8.00;6.00;;;;;-143.47;100.00;63865.75;2105853;27;46663;-48
2023/08/04 02:05:37;;;;;;;;;5.00;5.00;;;;;-143.47;100.00;63865.75;2097360;27;46528;-49
2023/08/04 02:06:37;;;;;;;;;6.33;6.00;;;;;-143.47;100.00;63865.75;2097619;28;46438;-50
2023/08/04 02:07:38;;;;;;;;;7.00;7.00;;;;;-143.47;100.00;63865.75;2105626;27;46436;-51
2023/08/04 02:08:38;;;;;;;;;4.33;4.33;;;;;-143.47;100.00;63865.75;2103018;27;46800;-50
2023/08/04 02:09:38;;;;;;;;;6.00;6.00;;;;;-143.47;100.00;63865.75;2103904;27;46214;-49
2023/08/04 02:10:46;;;;;;;;;6.00;6.00;;;;;-143.47;100.00;63865.75;2097185;28;46545;-49
2023/08/04 02:11:47;;;;;;;;;6.50;6.50;;;;;-143.47;100.00;63865.75;2099769;28;46696;-50
2023/08/04 02:12:47;;;;;;;;;8.00;8.00;;;;;-143.47;100.00;63865.75;2100730;27;46480;-51
2023/08/04 02:13:47;;;;;;;;;6.33;6.33;;;;;-143.47;100.00;63865.75;2097290;28;46577;-49
2023/08/04 02:14:48;;;;;;;;;5.00;5.00;;;;;-143.47;100.00;63865.75;2095099;28;46490;-50
2023/08/04 02:15:48;;;;;;;;;9.33;9.33;;;;;-143.47;100.00;63865.75;2089067;28;46401;-50
2023/08/04 02:16:48;;;;;;;;;6.67;6.67;;;;;-143.47;100.00;63865.75;2096839;28;46167;-51
2023/08/04 02:17:49;;;;;;;;;7.67;6.00;;;;;-143.47;100.00;63865.75;2097210;28;46042;-50
2023/08/04 02:18:49;;;;;;;;;9.67;8.00;;;;;-143.47;100.00;63865.75;2097304;28;46639;-51
2023/08/04 02:19:49;;;;;;;;;5.33;5.33;;;;;-143.47;100.00;63865.75;2096974;28;46692;-49
2023/08/04 02:20:50;;;;;;;;;6.33;6.33;;;;;-143.47;100.00;63865.75;2101173;28;46190;-49
2023/08/04 02:21:51;;;;;;;;;7.67;6.33;;;;;-143.47;100.00;63865.75;2093909;28;46473;-50
2023/08/04 02:22:51;;;;;;;;;7.75;7.75;;;;;-143.47;100.00;63865.75;2100286;28;46779;-50
2023/08/04 02:23:51;;;;;;;;;7.00;7.00;;;;;-143.47;100.00;63865.75;2098992;27;46862;-51
2023/08/04 02:24:52;;;;;;;;;6.67;6.67;;;;;-143.47;100.00;63865.75;2097223;28;47143;-52
2023/08/04 02:25:52;;;;;;;;;10.00;7.67;;;;;-143.47;100.00;63865.75;2097041;28;46417;-49
2023/08/04 02:26:52;;;;;;;;;7.33;6.67;;;;;-143.47;100.00;63865.75;2097049;28;46991;-52
2023/08/04 02:27:53;;;;;;;;;6.00;6.00;;;;;-143.47;100.00;63865.75;2096565;28;46604;-49
2023/08/04 02:28:54;;;;;;;;;7.33;7.00;;;;;-143.47;100.00;63865.75;2096342;27;46208;-53
2023/08/04 02:29:54;;;;;;;;;6.50;6.50;;;;;-143.47;100.00;63865.75;2096223;28;45317;-50
2023/08/04 02:30:55;;;;;;;;;7.00;7.00;;;;;-143.47;100.00;63865.75;2099623;28;46307;-53
2023/08/04 02:31:56;;;;;;;;;7.00;6.00;;;;;-143.47;100.00;63865.75;2097063;28;46358;-51
2023/08/04 02:32:57;;;;;;;;;7.50;6.50;;;;;-143.47;100.00;63865.75;2097556;28;46698;-53
2023/08/04 02:33:57;;;;;;;;;6.00;6.00;;;;;-143.47;100.00;63865.75;2098698;27;45327;-51
2023/08/04 02:34:57;;;;;;;;;7.67;7.67;;;;;-143.47;100.00;63865.75;2097588;28;45996;-52
2023/08/04 02:35:59;;;;;;;;;9.33;7.00;;;;;-143.47;100.00;63865.75;2096861;28;46664;-52
2023/08/04 02:36:59;;;;;;;;;6.75;6.75;;;;;-143.47;100.00;63865.75;2096932;28;46565;-51
2023/08/04 02:38:00;;;;;;;;;6.33;6.33;;;;;-143.47;100.00;63865.75;2097997;28;46355;-47
2023/08/04 02:39:00;;;;;;;;;7.00;7.00;;;;;-143.47;100.00;63865.75;2098208;27;46222;-50
2023/08/04 02:40:01;;;;;;;;;8.00;8.00;;;;;-143.47;100.00;63865.75;2098915;28;46731;-49
2023/08/04 02:41:02;;;;;;;;;7.33;7.33;;;;;-143.47;100.00;63865.75;2101545;28;46837;-51
2023/08/04 02:42:03;;;;;;;;;8.00;8.00;;;;;-143.47;100.00;63865.75;2098373;28;46357;-50
2023/08/04 02:43:03;;;;;;;;;7.33;7.33;;;;;-143.47;100.00;63865.75;2087736;28;46315;-52
2023/08/04 02:44:06;;;;;;;;;9.00;9.00;;;;;-143.47;100.00;63865.75;2096366;28;46646;-49
2023/08/04 02:45:07;;;;;;;;;9.50;8.00;;;;;-143.47;100.00;63865.75;2096397;28;46558;-52
2023/08/04 02:46:10;;;;;;;;;6.00;6.00;;;;;-143.47;100.00;63865.75;2096815;28;46758;-49
2023/08/04 02:47:11;;;;;;;;;7.75;7.75;;;;;-143.47;100.00;63865.75;2096465;28;47030;-52
2023/08/04 02:48:11;;;;;;;;;9.00;8.00;;;;;-143.47;100.00;63865.75;2097205;28;47040;-50
2023/08/04 02:49:11;;;;;;;;;7.33;7.33;;;;;-143.47;100.00;63865.75;2094167;28;46463;-49
2023/08/04 02:50:11;;;;;;;;;6.00;6.00;;;;;-143.47;100.00;63865.75;2102091;28;46793;-50
2023/08/04 02:51:12;;;;;;;;;8.33;8.00;;;;;-143.47;100.00;63865.75;2097484;28;46206;-49
2023/08/04 02:52:15;;;;;;;;;10.00;10.00;;;;;-143.47;100.00;63865.75;2104222;28;46231;-51
2023/08/04 02:53:16;;;;;;;;;10.00;9.00;;;;;-143.47;100.00;63865.75;2100697;28;46503;-52
2023/08/04 02:54:16;;;;;;;;;9.67;7.67;;;;;-143.47;100.00;63865.75;2099209;27;46755;-50
2023/08/04 02:55:16;;;;;;;;;10.00;9.00;;;;;-143.47;100.00;63865.75;2102958;28;46735;-53
2023/08/04 02:56:18;;;;;;;;;12.00;11.00;;;;;-143.47;100.00;63865.75;2096411;28;46375;-51
2023/08/04 02:57:18;;;;;;;;;9.50;9.50;;;;;-143.47;100.00;63865.75;2092052;28;46433;-51
2023/08/04 02:58:18;;;;;;;;;8.00;6.67;;;;;-143.47;100.00;63865.75;2092594;28;46138;-51
2023/08/04 02:59:19;;;;;;;;;7.67;7.67;;;;;-143.47;100.00;63865.75;2098571;28;45219;-49
2023/08/04 03:00:19;;;;;;;;;10.00;9.00;;;;;-143.47;100.00;63865.75;2101965;28;46426;-52
2023/08/04 03:01:19;;;;;;;;;9.00;9.00;;;;;-143.47;100.00;63865.75;2099636;28;46568;-52
2023/08/04 03:02:19;;;;;;;;;9.67;8.67;;;;;-143.47;100.00;63865.75;2099514;28;46349;-51
2023/08/04 03:03:20;;;;;;;;;10.00;8.33;;;;;-143.47;100.00;63865.75;2101902;28;46198;-48
2023/08/04 03:04:20;;;;;;;;;9.33;9.33;;;;;-143.47;100.00;63865.75;2098267;28;46203;-50
2023/08/04 03:05:21;;;;;;;;;6.67;6.67;;;;;-143.47;100.00;63865.75;2095646;28;46547;-51
2023/08/04 03:06:21;;;;;;;;;6.00;6.00;;;;;-143.47;100.00;63865.75;2092688;28;46584;-49
2023/08/04 03:07:21;;;;;;;;;11.33;8.33;;;;;-143.47;100.00;63865.75;2098996;27;46472;-49
2023/08/04 03:08:21;;;;;;;;;7.67;7.67;;;;;-143.47;100.00;63865.75;2096934;28;47191;-51
2023/08/04 03:09:22;;;;;;;;;10.67;10.67;;;;;-143.47;100.00;63865.75;2100033;28;46634;-49
2023/08/04 03:10:22;;;;;;;;;10.00;10.00;;;;;-143.47;100.00;63865.75;2101483;27;46532;-51
2023/08/04 03:11:24;;;;;;;;;8.67;8.67;;;;;-143.47;100.00;63865.75;2103779;28;46838;-51
2023/08/04 03:12:24;;;;;;;;;10.00;9.50;;;;;-143.47;100.00;63865.75;2093791;28;46509;-50
2023/08/04 03:13:25;;;;;;;;;8.00;8.00;;;;;-143.47;100.00;63865.75;2087208;28;46295;-49
2023/08/04 03:14:25;;;;;;;;;10.00;9.00;;;;;-143.47;100.00;63865.75;2089000;28;46898;-49
2023/08/04 03:15:26;;;;;;;;;7.00;7.00;;;;;-143.47;100.00;63865.75;2088828;28;46595;-50
2023/08/04 03:16:26;;;;;;;;;9.33;9.33;;;;;-143.47;100.00;63865.75;2089333;28;46700;-51
2023/08/04 03:17:28;;;;;;;;;9.67;7.67;;;;;-143.47;100.00;63865.75;2087581;28;46261;-49
2023/08/04 03:18:28;;;;;;;;;8.00;8.00;;;;;-143.47;100.00;63865.75;2087911;28;46769;-49
2023/08/04 03:19:29;;;;;;;;;8.67;8.67;;;;;-143.47;100.00;63865.75;2091360;28;46129;-50
2023/08/04 03:20:34;;;;;;;;;5.67;5.67;;;;;-143.47;100.00;63865.75;2089694;28;46401;-50
2023/08/04 03:21:35;;;;;;;;;7.00;6.00;;;;;-143.47;100.00;63865.75;2088898;28;46893;-52
2023/08/04 03:22:35;;;;;;;;;8.67;8.67;;;;;-143.47;100.00;63865.75;2087108;28;46224;-52
2023/08/04 03:23:35;;;;;;;;;7.33;7.33;;;;;-143.47;100.00;63865.75;2087456;28;46267;-49
2023/08/04 03:24:36;;;;;;;;;10.00;9.00;;;;;-143.47;100.00;63865.75;2087695;28;46226;-52
2023/08/04 03:25:36;;;;;;;;;9.00;9.00;;;;;-143.47;100.00;63865.75;2095600;28;46639;-50
2023/08/04 03:26:36;;;;;;;;;8.67;8.67;;;;;-143.47;100.00;63865.75;2095528;28;46248;-49
2023/08/04 03:27:37;;;;;;;;;9.00;9.00;;;;;-143.47;100.00;63865.75;2087539;28;46951;-50
2023/08/04 03:28:37;;;;;;;;;10.00;9.67;;;;;-143.47;100.00;63865.75;2087205;28;46667;-53
2023/08/04 03:29:37;;;;;;;;;10.67;9.33;;;;;-143.47;100.00;63865.75;2087606;28;46491;-53
2023/08/04 03:30:38;;;;;;;;;8.00;8.00;;;;;-143.47;100.00;63865.75;2091073;28;46721;-54
2023/08/04 03:31:38;;;;;;;;;9.00;9.00;;;;;-143.47;100.00;63865.75;2088135;28;46707;-53
2023/08/04 03:32:38;;;;;;;;;11.33;9.67;;;;;-143.47;100.00;63865.75;2087897;28;46188;-51
2023/08/04 03:33:39;;;;;;;;;11.33;10.33;;;;;-143.47;100.00;63865.75;2091617;28;46380;-53
2023/08/04 03:34:39;;;;;;;;;9.67;9.33;;;;;-143.47;100.00;63865.75;2095556;28;46894;-53
2023/08/04 03:35:39;;;;;;;;;7.00;7.00;;;;;-143.47;100.00;63865.75;2097217;28;46489;-52
2023/08/04 03:36:40;;;;;;;;;10.00;9.00;;;;;-143.47;100.00;63865.75;2090399;28;46479;-53
2023/08/04 03:37:40;;;;;;;;;13.33;11.33;;;;;-143.47;100.00;63865.75;2092593;28;46697;-51
2023/08/04 03:38:40;;;;;;;;;10.00;10.00;;;;;-143.47;100.00;63865.75;2091220;28;46327;-53
2023/08/04 03:39:41;;;;;;;;;10.33;9.67;;;;;-143.47;100.00;63865.75;2092648;28;44932;-52
2023/08/04 03:40:41;;;;;;;;;11.00;11.00;;;;;-143.47;100.00;63865.75;2091207;28;46145;-54
2023/08/04 03:41:42;;;;;;;;;8.00;8.00;;;;;-143.47;100.00;63865.75;2093196;28;46283;-52
2023/08/04 03:42:43;;;;;;;;;8.67;8.67;;;;;-143.47;100.00;63865.75;2093230;28;46241;-51
2023/08/04 03:43:43;;;;;;;;;12.75;11.00;;;;;-143.47;100.00;63865.75;2091568;28;46537;-52
2023/08/04 03:44:44;;;;;;;;;10.00;10.00;;;;;-143.47;100.00;63865.75;2103785;28;46453;-50
2023/08/04 03:45:44;;;;;;;;;7.00;6.67;;;;;-143.47;100.00;63865.75;2101404;28;46704;-50
2023/08/04 03:46:44;;;;;;;;;9.67;9.33;;;;;-143.47;100.00;63865.75;2094917;28;46422;-50
2023/08/04 03:47:45;;;;;;;;;9.00;9.00;;;;;-143.47;100.00;63865.75;2094262;28;46595;-49
2023/08/04 03:48:45;;;;;;;;;8.67;8.67;;;;;-143.47;100.00;63865.75;2106000;27;46082;-49
2023/08/04 03:49:45;;;;;;;;;9.33;8.67;;;;;-143.47;100.00;63865.75;2108638;27;46648;-51
2023/08/04 03:50:46;;;;;;;;;5.67;5.67;;;;;-143.47;100.00;63865.75;2094405;28;46805;-49
2023/08/04 03:51:46;;;;;;;;;9.33;9.33;;;;;-143.47;100.00;63865.75;2096662;28;46218;-53
2023/08/04 03:52:46;;;;;;;;;10.00;9.00;;;;;-143.47;100.00;63865.75;2098440;28;45768;-54
2023/08/04 03:53:47;;;;;;;;;8.00;7.67;;;;;-143.47;100.00;63865.75;2091657;28;45081;-51
2023/08/04 03:54:47;;;;;;;;;10.33;10.33;;;;;-143.47;100.00;63865.75;2095417;28;46588;-48
2023/08/04 03:55:47;;;;;;;;;7.67;7.67;;;;;-143.47;100.00;63865.75;2095495;28;46762;-50
2023/08/04 03:56:47;;;;;;;;;8.33;8.33;;;;;-143.47;100.00;63865.75;2097850;27;46555;-51
2023/08/04 03:57:48;;;;;;;;;11.67;8.67;;;;;-143.47;100.00;63865.75;2096616;28;46619;-51
2023/08/04 03:58:48;;;;;;;;;11.33;8.67;;;;;-143.47;100.00;63865.75;2092175;28;46488;-50
2023/08/04 03:59:51;;;;;;;;;10.33;9.67;;;;;-143.47;100.00;63865.75;2093341;28;46387;-53
2023/08/04 04:00:51;;;;;;;;;7.50;7.25;;;;;-143.47;100.00;63865.75;2097157;28;46711;-50
2023/08/04 04:01:51;;;;;;;;;10.00;10.00;;;;;-143.47;100.00;63865.75;2097091;27;46442;-50
2023/08/04 04:02:52;;;;;;;;;8.00;8.00;;;;;-143.47;100.00;63865.75;2096097;28;46383;-52
2023/08/04 04:03:53;;;;;;;;;10.67;9.67;;;;;-143.47;100.00;63865.75;2102142;28;47329;-51
2023/08/04 04:04:53;;;;;;;;;10.25;8.75;;;;;-143.47;100.00;63865.75;2096011;28;46403;-52
2023/08/04 04:05:53;;;;;;;;;10.67;10.00;;;;;-143.47;100.00;63865.75;2096425;28;45494;-50
2023/08/04 04:06:54;;;;;;;;;10.00;9.33;;;;;-143.47;100.00;63865.75;2095928;28;46331;-53
2023/08/04 04:07:54;;;;;;;;;10.33;10.33;;;;;-143.47;100.00;63865.75;2093273;28;46359;-50
2023/08/04 04:08:55;;;;;;;;;8.00;8.00;;;;;-143.47;100.00;63865.75;2103430;28;46690;-52
2023/08/04 04:09:55;;;;;;;;;13.00;12.00;;;;;-143.47;100.00;63865.75;2096438;28;46936;-51
2023/08/04 04:10:56;;;;;;;;;10.00;10.00;;;;;-143.47;100.00;63865.75;2098140;28;46650;-50
2023/08/04 04:11:57;;;;;;;;;8.00;8.00;;;;;-143.47;100.00;63865.75;2096943;28;46442;-49
2023/08/04 04:12:57;;;;;;;;;10.67;10.33;;;;;-143.47;100.00;63865.75;2093011;27;46687;-51
2023/08/04 04:13:57;;;;;;;;;10.33;8.00;;;;;-143.47;100.00;63865.75;2096717;28;46113;-50
2023/08/04 04:14:58;;;;;;;;;11.33;10.00;;;;;-143.47;100.00;63865.75;2099366;28;46576;-48
2023/08/04 04:15:58;;;;;;;;;11.00;10.67;;;;;-143.47;100.00;63865.75;2099116;28;46973;-51
2023/08/04 04:16:58;;;;;;;;;10.00;10.00;;;;;-143.47;100.00;63865.75;2100451;28;45604;-52
2023/08/04 04:17:59;;;;;;;;;8.67;6.67;;;;;-143.47;100.00;63865.75;2098343;27;47037;-50
2023/08/04 04:18:59;;;;;;;;;11.00;11.00;;;;;-143.47;100.00;63865.75;2100016;28;46824;-48
2023/08/04 04:19:59;;;;;;;;;6.33;6.33;;;;;-143.47;100.00;63865.75;2097938;28;46623;-50
2023/08/04 04:21:00;;;;;;;;;9.67;9.67;;;;;-143.47;100.00;63865.75;2098656;27;46645;-52
2023/08/04 04:22:00;;;;;;;;;11.00;11.00;;;;;-143.47;100.00;63865.75;2097764;28;46690;-49
2023/08/04 04:23:01;;;;;;;;;9.33;9.00;;;;;-143.47;100.00;63865.75;2087939;28;46324;-49
2023/08/04 04:24:01;;;;;;;;;10.33;10.33;;;;;-143.47;100.00;63865.75;2080820;28;47020;-49
2023/08/04 04:25:02;;;;;;;;;11.00;11.00;;;;;-143.47;100.00;63865.75;2095137;28;45508;-49
2023/08/04 04:26:07;;;;;;;;;8.00;8.00;;;;;-143.47;100.00;63865.75;2095944;28;46520;-49
2023/08/04 04:27:07;;;;;;;;;9.00;8.50;;;;;-143.47;100.00;63865.75;2097146;27;46827;-52
2023/08/04 04:28:07;;;;;;;;;10.00;10.00;;;;;-143.47;100.00;63865.75;2097530;28;46624;-49
2023/08/04 04:29:08;;;;;;;;;12.00;10.00;;;;;-143.47;100.00;63865.75;2097612;28;46660;-48
2023/08/04 04:30:08;;;;;;;;;11.33;11.00;;;;;-143.47;100.00;63865.75;2098287;28;47203;-52
2023/08/04 04:31:08;;;;;;;;;8.67;7.67;;;;;-143.47;100.00;63865.75;2097281;28;46271;-48
2023/08/04 04:32:09;;;;;;;;;10.33;9.67;;;;;-143.47;100.00;63865.75;2097433;28;46731;-52
2023/08/04 04:33:09;;;;;;;;;9.33;9.00;;;;;-143.47;100.00;63865.75;2111809;27;46201;-49
2023/08/04 04:34:09;;;;;;;;;10.33;10.00;;;;;-143.47;100.00;63865.75;2097542;27;46610;-51
2023/08/04 04:35:10;;;;;;;;;9.33;9.33;;;;;-143.47;100.00;63865.75;2096935;28;46490;-51
2023/08/04 04:36:10;;;;;;;;;10.00;10.00;;;;;-143.47;100.00;63865.75;2089867;28;46315;-53